sensor_id;sensor_type;location;lat;lon;timestamp;P1;durP1;ratioP1;P2;durP2;ratioP2
65358;SDS011;52491;45.900;6.346;2024-03-23T00:55:59;1.63;;;1.27;;
65358;SDS011;52491;45.900;6.346;2024-03-23T00:58:25;2.83;;;1.58;;
65358;SDS011;52491;45.900;6.346;2024-03-23T01:00:50;1.77;;;1.33;;
65358;SDS011;52491;45.900;6.346;2024-03-23T01:03:16;3.30;;;1.60;;
65358;SDS011;52491;45.900;6.346;2024-03-23T01:05:42;1.05;;;0.95;;
65358;SDS011;52491;45.900;6.346;2024-03-23T01:08:07;2.75;;;1.42;;
65358;SDS011;52491;45.900;6.346;2024-03-23T01:10:33;2.70;;;1.60;;
65358;SDS011;52491;45.900;6.346;2024-03-23T01:12:59;1.92;;;1.20;;
65358;SDS011;52491;45.900;6.346;2024-03-23T01:15:24;1.60;;;1.38;;
65358;SDS011;52491;45.900;6.346;2024-03-23T01:17:50;5.03;;;1.20;;
65358;SDS011;52491;45.900;6.346;2024-03-23T01:20:16;1.27;;;1.17;;
65358;SDS011;52491;45.900;6.346;2024-03-23T01:22:42;1.98;;;1.50;;
65358;SDS011;52491;45.900;6.346;2024-03-23T01:25:08;1.63;;;1.13;;
65358;SDS011;52491;45.900;6.346;2024-03-23T01:27:34;1.48;;;1.20;;
65358;SDS011;52491;45.900;6.346;2024-03-23T01:30:00;1.25;;;0.93;;
65358;SDS011;52491;45.900;6.346;2024-03-23T01:32:25;1.17;;;1.08;;
65358;SDS011;52491;45.900;6.346;2024-03-23T01:34:51;1.92;;;1.73;;
65358;SDS011;52491;45.900;6.346;2024-03-23T01:37:17;1.88;;;0.90;;
65358;SDS011;52491;45.900;6.346;2024-03-23T01:39:43;1.77;;;1.02;;
65358;SDS011;52491;45.900;6.346;2024-03-23T01:42:08;1.48;;;1.00;;
65358;SDS011;52491;45.900;6.346;2024-03-23T01:44:34;0.98;;;0.90;;
65358;SDS011;52491;45.900;6.346;2024-03-23T01:46:59;1.83;;;1.55;;
65358;SDS011;52491;45.900;6.346;2024-03-23T01:49:25;1.52;;;1.10;;
65358;SDS011;52491;45.900;6.346;2024-03-23T01:51:51;1.20;;;1.10;;
65358;SDS011;52491;45.900;6.346;2024-03-23T01:54:17;4.32;;;1.48;;
65358;SDS011;52491;45.900;6.346;2024-03-23T01:56:44;2.83;;;1.52;;
65358;SDS011;52491;45.900;6.346;2024-03-23T01:59:09;2.28;;;1.23;;
65358;SDS011;52491;45.900;6.346;2024-03-23T02:01:35;1.30;;;1.15;;
65358;SDS011;52491;45.900;6.346;2024-03-23T02:04:01;1.98;;;1.30;;
65358;SDS011;52491;45.900;6.346;2024-03-23T02:06:27;1.05;;;0.90;;
65358;SDS011;52491;45.900;6.346;2024-03-23T02:08:53;1.42;;;1.33;;
65358;SDS011;52491;45.900;6.346;2024-03-23T02:11:20;1.83;;;0.95;;
65358;SDS011;52491;45.900;6.346;2024-03-23T02:13:46;1.55;;;1.27;;
65358;SDS011;52491;45.900;6.346;2024-03-23T02:16:11;3.38;;;1.10;;
65358;SDS011;52491;45.900;6.346;2024-03-23T02:18:38;1.67;;;1.35;;
65358;SDS011;52491;45.900;6.346;2024-03-23T02:21:04;1.40;;;1.20;;
65358;SDS011;52491;45.900;6.346;2024-03-23T02:23:30;1.77;;;1.25;;
65358;SDS011;52491;45.900;6.346;2024-03-23T02:25:56;1.50;;;1.27;;
65358;SDS011;52491;45.900;6.346;2024-03-23T02:28:22;1.30;;;0.93;;
65358;SDS011;52491;45.900;6.346;2024-03-23T02:30:48;1.23;;;1.13;;
65358;SDS011;52491;45.900;6.346;2024-03-23T02:33:14;1.30;;;1.15;;
65358;SDS011;52491;45.900;6.346;2024-03-23T02:35:41;2.08;;;1.13;;
65358;SDS011;52491;45.900;6.346;2024-03-23T02:38:07;2.28;;;1.40;;
65358;SDS011;52491;45.900;6.346;2024-03-23T02:40:33;1.10;;;1.00;;
65358;SDS011;52491;45.900;6.346;2024-03-23T02:42:59;2.95;;;1.45;;
65358;SDS011;52491;45.900;6.346;2024-03-23T02:45:24;1.58;;;1.10;;
65358;SDS011;52491;45.900;6.346;2024-03-23T02:47:50;3.78;;;1.63;;
65358;SDS011;52491;45.900;6.346;2024-03-23T02:50:18;1.70;;;1.00;;
65358;SDS011;52491;45.900;6.346;2024-03-23T02:52:44;0.75;;;0.75;;
65358;SDS011;52491;45.900;6.346;2024-03-23T02:55:10;1.67;;;1.25;;
65358;SDS011;52491;45.900;6.346;2024-03-23T02:57:35;1.45;;;1.23;;
65358;SDS011;52491;45.900;6.346;2024-03-23T03:00:01;1.08;;;0.90;;
65358;SDS011;52491;45.900;6.346;2024-03-23T03:02:27;1.30;;;1.13;;
65358;SDS011;52491;45.900;6.346;2024-03-23T03:04:53;1.30;;;0.88;;
65358;SDS011;52491;45.900;6.346;2024-03-23T03:07:19;3.10;;;1.45;;
65358;SDS011;52491;45.900;6.346;2024-03-23T03:09:44;3.35;;;1.23;;
65358;SDS011;52491;45.900;6.346;2024-03-23T03:12:10;1.67;;;1.20;;
65358;SDS011;52491;45.900;6.346;2024-03-23T03:14:36;2.50;;;1.15;;
65358;SDS011;52491;45.900;6.346;2024-03-23T03:17:02;1.35;;;1.00;;
65358;SDS011;52491;45.900;6.346;2024-03-23T03:19:27;2.38;;;1.30;;
65358;SDS011;52491;45.900;6.346;2024-03-23T03:21:53;2.05;;;1.15;;
65358;SDS011;52491;45.900;6.346;2024-03-23T03:24:19;2.15;;;1.15;;
65358;SDS011;52491;45.900;6.346;2024-03-23T03:26:45;0.90;;;0.90;;
65358;SDS011;52491;45.900;6.346;2024-03-23T03:29:10;1.05;;;0.85;;
65358;SDS011;52491;45.900;6.346;2024-03-23T03:31:37;1.77;;;0.98;;
65358;SDS011;52491;45.900;6.346;2024-03-23T03:34:04;3.15;;;1.15;;
65358;SDS011;52491;45.900;6.346;2024-03-23T03:36:29;1.08;;;0.90;;
65358;SDS011;52491;45.900;6.346;2024-03-23T03:38:55;1.05;;;0.95;;
65358;SDS011;52491;45.900;6.346;2024-03-23T03:41:21;0.80;;;0.80;;
65358;SDS011;52491;45.900;6.346;2024-03-23T03:43:46;1.75;;;1.13;;
65358;SDS011;52491;45.900;6.346;2024-03-23T03:46:12;1.25;;;0.98;;
65358;SDS011;52491;45.900;6.346;2024-03-23T03:48:39;2.05;;;1.05;;
65358;SDS011;52491;45.900;6.346;2024-03-23T03:51:05;2.05;;;1.35;;
65358;SDS011;52491;45.900;6.346;2024-03-23T03:53:31;0.82;;;0.82;;
65358;SDS011;52491;45.900;6.346;2024-03-23T03:56:00;1.65;;;1.00;;
65358;SDS011;52491;45.900;6.346;2024-03-23T03:58:27;1.30;;;0.90;;
65358;SDS011;52491;45.900;6.346;2024-03-23T04:00:52;2.92;;;1.38;;
65358;SDS011;52491;45.900;6.346;2024-03-23T04:03:18;2.05;;;1.10;;
65358;SDS011;52491;45.900;6.346;2024-03-23T04:05:49;1.00;;;0.75;;
65358;SDS011;52491;45.900;6.346;2024-03-23T04:08:16;0.88;;;0.77;;
65358;SDS011;52491;45.900;6.346;2024-03-23T04:10:42;2.60;;;1.08;;
65358;SDS011;52491;45.900;6.346;2024-03-23T04:13:08;3.15;;;1.40;;
65358;SDS011;52491;45.900;6.346;2024-03-23T04:15:33;4.85;;;1.13;;
65358;SDS011;52491;45.900;6.346;2024-03-23T04:17:59;2.67;;;0.90;;
65358;SDS011;52491;45.900;6.346;2024-03-23T04:20:25;9.68;;;1.23;;
65358;SDS011;52491;45.900;6.346;2024-03-23T04:22:51;3.08;;;1.05;;
65358;SDS011;52491;45.900;6.346;2024-03-23T04:25:16;1.75;;;1.20;;
65358;SDS011;52491;45.900;6.346;2024-03-23T04:27:44;1.55;;;1.00;;
65358;SDS011;52491;45.900;6.346;2024-03-23T04:30:11;2.08;;;1.30;;
65358;SDS011;52491;45.900;6.346;2024-03-23T04:32:38;7.57;;;2.65;;
65358;SDS011;52491;45.900;6.346;2024-03-23T04:35:04;7.00;;;2.95;;
65358;SDS011;52491;45.900;6.346;2024-03-23T04:37:31;6.40;;;2.83;;
65358;SDS011;52491;45.900;6.346;2024-03-23T04:39:59;5.72;;;3.00;;
65358;SDS011;52491;45.900;6.346;2024-03-23T04:42:26;9.68;;;4.55;;
65358;SDS011;52491;45.900;6.346;2024-03-23T04:44:51;7.40;;;3.10;;
65358;SDS011;52491;45.900;6.346;2024-03-23T04:47:17;5.47;;;3.13;;
65358;SDS011;52491;45.900;6.346;2024-03-23T04:49:43;6.47;;;3.08;;
65358;SDS011;52491;45.900;6.346;2024-03-23T04:52:09;7.55;;;3.33;;
65358;SDS011;52491;45.900;6.346;2024-03-23T04:54:35;8.35;;;4.18;;
65358;SDS011;52491;45.900;6.346;2024-03-23T04:57:00;7.05;;;4.13;;
65358;SDS011;52491;45.900;6.346;2024-03-23T04:59:26;7.85;;;3.70;;
65358;SDS011;52491;45.900;6.346;2024-03-23T05:01:52;7.93;;;3.38;;
65358;SDS011;52491;45.900;6.346;2024-03-23T05:04:18;6.93;;;3.28;;
65358;SDS011;52491;45.900;6.346;2024-03-23T05:06:44;5.72;;;2.83;;
65358;SDS011;52491;45.900;6.346;2024-03-23T05:09:09;6.38;;;3.47;;
65358;SDS011;52491;45.900;6.346;2024-03-23T05:11:38;5.13;;;3.03;;
65358;SDS011;52491;45.900;6.346;2024-03-23T05:14:04;3.97;;;2.67;;
65358;SDS011;52491;45.900;6.346;2024-03-23T05:16:30;6.35;;;3.25;;
65358;SDS011;52491;45.900;6.346;2024-03-23T05:18:55;6.13;;;3.28;;
65358;SDS011;52491;45.900;6.346;2024-03-23T05:21:21;6.45;;;3.10;;
65358;SDS011;52491;45.900;6.346;2024-03-23T05:23:47;6.13;;;3.28;;
65358;SDS011;52491;45.900;6.346;2024-03-23T05:26:13;5.53;;;3.08;;
65358;SDS011;52491;45.900;6.346;2024-03-23T05:28:39;5.30;;;3.10;;
65358;SDS011;52491;45.900;6.346;2024-03-23T05:31:05;6.90;;;3.13;;
65358;SDS011;52491;45.900;6.346;2024-03-23T05:33:31;4.18;;;2.47;;
65358;SDS011;52491;45.900;6.346;2024-03-23T05:35:57;5.18;;;2.70;;
65358;SDS011;52491;45.900;6.346;2024-03-23T05:38:24;5.43;;;3.13;;
65358;SDS011;52491;45.900;6.346;2024-03-23T05:43:17;3.08;;;2.08;;
65358;SDS011;52491;45.900;6.346;2024-03-23T05:45:43;5.53;;;3.05;;
65358;SDS011;52491;45.900;6.346;2024-03-23T05:48:08;5.32;;;2.72;;
65358;SDS011;52491;45.900;6.346;2024-03-23T05:50:34;5.13;;;2.38;;
65358;SDS011;52491;45.900;6.346;2024-03-23T05:53:00;5.05;;;3.33;;
65358;SDS011;52491;45.900;6.346;2024-03-23T05:55:25;5.88;;;3.20;;
65358;SDS011;52491;45.900;6.346;2024-03-23T05:57:52;3.95;;;2.60;;
65358;SDS011;52491;45.900;6.346;2024-03-23T06:00:18;4.30;;;2.25;;
65358;SDS011;52491;45.900;6.346;2024-03-23T06:02:44;4.07;;;2.40;;
65358;SDS011;52491;45.900;6.346;2024-03-23T06:05:10;4.40;;;2.65;;
65358;SDS011;52491;45.900;6.346;2024-03-23T06:07:37;4.88;;;2.53;;
65358;SDS011;52491;45.900;6.346;2024-03-23T06:10:03;4.78;;;2.55;;
65358;SDS011;52491;45.900;6.346;2024-03-23T06:12:29;8.63;;;2.95;;
65358;SDS011;52491;45.900;6.346;2024-03-23T06:14:55;4.35;;;1.92;;
65358;SDS011;52491;45.900;6.346;2024-03-23T06:17:20;3.97;;;2.30;;
65358;SDS011;52491;45.900;6.346;2024-03-23T06:19:46;3.10;;;2.22;;
65358;SDS011;52491;45.900;6.346;2024-03-23T06:22:12;3.80;;;2.03;;
65358;SDS011;52491;45.900;6.346;2024-03-23T06:24:38;3.88;;;2.20;;
65358;SDS011;52491;45.900;6.346;2024-03-23T06:27:04;5.20;;;2.75;;
65358;SDS011;52491;45.900;6.346;2024-03-23T06:29:29;4.97;;;2.33;;
65358;SDS011;52491;45.900;6.346;2024-03-23T06:31:55;3.47;;;1.98;;
65358;SDS011;52491;45.900;6.346;2024-03-23T06:34:21;4.65;;;2.42;;
65358;SDS011;52491;45.900;6.346;2024-03-23T06:36:48;5.50;;;1.90;;
65358;SDS011;52491;45.900;6.346;2024-03-23T06:39:14;3.60;;;2.58;;
65358;SDS011;52491;45.900;6.346;2024-03-23T06:41:42;3.53;;;1.98;;
65358;SDS011;52491;45.900;6.346;2024-03-23T06:44:08;3.78;;;2.00;;
65358;SDS011;52491;45.900;6.346;2024-03-23T06:46:34;2.88;;;1.65;;
65358;SDS011;52491;45.900;6.346;2024-03-23T06:49:00;5.18;;;2.47;;
65358;SDS011;52491;45.900;6.346;2024-03-23T06:51:25;3.45;;;2.28;;
65358;SDS011;52491;45.900;6.346;2024-03-23T06:53:51;2.75;;;1.67;;
65358;SDS011;52491;45.900;6.346;2024-03-23T06:56:16;3.22;;;1.52;;
65358;SDS011;52491;45.900;6.346;2024-03-23T06:58:42;3.45;;;2.05;;
65358;SDS011;52491;45.900;6.346;2024-03-23T07:01:08;2.95;;;2.00;;
65358;SDS011;52491;45.900;6.346;2024-03-23T07:03:33;2.97;;;1.85;;
65358;SDS011;52491;45.900;6.346;2024-03-23T07:05:59;2.83;;;1.60;;
65358;SDS011;52491;45.900;6.346;2024-03-23T07:08:24;2.22;;;1.40;;
65358;SDS011;52491;45.900;6.346;2024-03-23T07:10:50;3.50;;;2.22;;
65358;SDS011;52491;45.900;6.346;2024-03-23T07:13:16;2.30;;;2.10;;
65358;SDS011;52491;45.900;6.346;2024-03-23T07:15:42;3.58;;;2.10;;
65358;SDS011;52491;45.900;6.346;2024-03-23T07:18:08;3.10;;;2.00;;
65358;SDS011;52491;45.900;6.346;2024-03-23T07:20:33;2.72;;;1.67;;
65358;SDS011;52491;45.900;6.346;2024-03-23T07:22:59;3.50;;;2.17;;
65358;SDS011;52491;45.900;6.346;2024-03-23T07:25:25;3.63;;;2.20;;
65358;SDS011;52491;45.900;6.346;2024-03-23T07:27:53;2.70;;;1.83;;
65358;SDS011;52491;45.900;6.346;2024-03-23T07:30:19;4.15;;;1.60;;
65358;SDS011;52491;45.900;6.346;2024-03-23T07:32:44;2.17;;;1.67;;
65358;SDS011;52491;45.900;6.346;2024-03-23T07:35:10;3.60;;;1.77;;
65358;SDS011;52491;45.900;6.346;2024-03-23T07:37:36;5.63;;;1.60;;
65358;SDS011;52491;45.900;6.346;2024-03-23T07:40:02;2.38;;;1.40;;
65358;SDS011;52491;45.900;6.346;2024-03-23T07:42:28;3.70;;;1.15;;
65358;SDS011;52491;45.900;6.346;2024-03-23T07:44:54;3.28;;;1.83;;
65358;SDS011;52491;45.900;6.346;2024-03-23T07:47:22;6.80;;;1.83;;
65358;SDS011;52491;45.900;6.346;2024-03-23T07:49:48;1.70;;;1.27;;
65358;SDS011;52491;45.900;6.346;2024-03-23T07:52:14;1.30;;;1.20;;
65358;SDS011;52491;45.900;6.346;2024-03-23T07:54:39;2.65;;;1.50;;
65358;SDS011;52491;45.900;6.346;2024-03-23T07:57:05;3.40;;;1.75;;
65358;SDS011;52491;45.900;6.346;2024-03-23T07:59:31;2.30;;;1.40;;
65358;SDS011;52491;45.900;6.346;2024-03-23T08:01:59;1.75;;;1.27;;
65358;SDS011;52491;45.900;6.346;2024-03-23T08:04:25;4.93;;;1.88;;
65358;SDS011;52491;45.900;6.346;2024-03-23T08:06:50;2.03;;;1.27;;
65358;SDS011;52491;45.900;6.346;2024-03-23T08:09:16;4.68;;;1.58;;
65358;SDS011;52491;45.900;6.346;2024-03-23T08:11:42;4.70;;;1.85;;
65358;SDS011;52491;45.900;6.346;2024-03-23T08:14:10;6.07;;;1.48;;
65358;SDS011;52491;45.900;6.346;2024-03-23T08:16:36;6.97;;;1.73;;
65358;SDS011;52491;45.900;6.346;2024-03-23T08:19:01;7.40;;;2.15;;
65358;SDS011;52491;45.900;6.346;2024-03-23T08:21:29;4.97;;;1.60;;
65358;SDS011;52491;45.900;6.346;2024-03-23T08:23:55;7.63;;;2.28;;
65358;SDS011;52491;45.900;6.346;2024-03-23T08:26:20;5.05;;;1.80;;
65358;SDS011;52491;45.900;6.346;2024-03-23T08:28:46;2.15;;;1.20;;
65358;SDS011;52491;45.900;6.346;2024-03-23T08:31:13;5.97;;;1.73;;
65358;SDS011;52491;45.900;6.346;2024-03-23T08:33:39;6.30;;;1.92;;
65358;SDS011;52491;45.900;6.346;2024-03-23T08:36:08;7.20;;;1.45;;
65358;SDS011;52491;45.900;6.346;2024-03-23T08:38:35;10.27;;;2.92;;
65358;SDS011;52491;45.900;6.346;2024-03-23T08:41:03;67.00;;;25.55;;
65358;SDS011;52491;45.900;6.346;2024-03-23T08:43:30;173.13;;;60.90;;
65358;SDS011;52491;45.900;6.346;2024-03-23T08:48:24;132.50;;;52.25;;
65358;SDS011;52491;45.900;6.346;2024-03-23T08:50:59;129.20;;;49.83;;
65358;SDS011;52491;45.900;6.346;2024-03-23T08:53:27;117.80;;;46.60;;
65358;SDS011;52491;45.900;6.346;2024-03-23T08:55:55;124.43;;;46.80;;
65358;SDS011;52491;45.900;6.346;2024-03-23T08:58:24;111.32;;;42.67;;
65358;SDS011;52491;45.900;6.346;2024-03-23T09:00:51;106.07;;;43.15;;
65358;SDS011;52491;45.900;6.346;2024-03-23T09:03:17;93.13;;;37.33;;
65358;SDS011;52491;45.900;6.346;2024-03-23T09:05:43;90.03;;;34.05;;
65358;SDS011;52491;45.900;6.346;2024-03-23T09:08:08;86.55;;;33.53;;
65358;SDS011;52491;45.900;6.346;2024-03-23T09:10:38;87.28;;;32.60;;
65358;SDS011;52491;45.900;6.346;2024-03-23T09:13:04;78.30;;;29.77;;
65358;SDS011;52491;45.900;6.346;2024-03-23T09:15:29;70.68;;;27.60;;
65358;SDS011;52491;45.900;6.346;2024-03-23T09:17:56;79.38;;;28.45;;
65358;SDS011;52491;45.900;6.346;2024-03-23T09:20:24;72.00;;;27.30;;
65358;SDS011;52491;45.900;6.346;2024-03-23T09:22:49;66.82;;;25.80;;
65358;SDS011;52491;45.900;6.346;2024-03-23T09:25:15;62.88;;;26.15;;
65358;SDS011;52491;45.900;6.346;2024-03-23T09:27:40;59.33;;;24.10;;
65358;SDS011;52491;45.900;6.346;2024-03-23T09:30:06;64.25;;;22.80;;
65358;SDS011;52491;45.900;6.346;2024-03-23T09:32:32;56.67;;;23.10;;
65358;SDS011;52491;45.900;6.346;2024-03-23T09:34:58;61.28;;;23.52;;
65358;SDS011;52491;45.900;6.346;2024-03-23T09:37:23;42.13;;;16.63;;
65358;SDS011;52491;45.900;6.346;2024-03-23T09:39:49;50.03;;;19.50;;
65358;SDS011;52491;45.900;6.346;2024-03-23T09:42:14;41.17;;;19.10;;
65358;SDS011;52491;45.900;6.346;2024-03-23T09:44:40;48.75;;;18.77;;
65358;SDS011;52491;45.900;6.346;2024-03-23T09:47:06;47.10;;;18.30;;
65358;SDS011;52491;45.900;6.346;2024-03-23T09:49:34;39.33;;;18.75;;
65358;SDS011;52491;45.900;6.346;2024-03-23T09:52:02;47.97;;;16.88;;
65358;SDS011;52491;45.900;6.346;2024-03-23T09:54:28;39.00;;;17.20;;
65358;SDS011;52491;45.900;6.346;2024-03-23T09:56:54;46.78;;;16.83;;
65358;SDS011;52491;45.900;6.346;2024-03-23T09:59:20;39.08;;;16.23;;
65358;SDS011;52491;45.900;6.346;2024-03-23T10:01:45;40.15;;;15.98;;
65358;SDS011;52491;45.900;6.346;2024-03-23T10:04:12;36.65;;;15.32;;
65358;SDS011;52491;45.900;6.346;2024-03-23T10:07:07;37.92;;;15.00;;
65358;SDS011;52491;45.900;6.346;2024-03-23T10:09:36;31.20;;;14.95;;
65358;SDS011;52491;45.900;6.346;2024-03-23T10:14:33;34.47;;;15.35;;
65358;SDS011;52491;45.900;6.346;2024-03-23T10:17:11;39.15;;;14.63;;
65358;SDS011;52491;45.900;6.346;2024-03-23T10:19:45;31.73;;;12.80;;
65358;SDS011;52491;45.900;6.346;2024-03-23T10:22:13;34.53;;;14.20;;
65358;SDS011;52491;45.900;6.346;2024-03-23T10:24:41;31.70;;;12.88;;
65358;SDS011;52491;45.900;6.346;2024-03-23T10:27:07;35.28;;;13.35;;
65358;SDS011;52491;45.900;6.346;2024-03-23T10:29:33;25.55;;;12.80;;
65358;SDS011;52491;45.900;6.346;2024-03-23T10:32:07;30.90;;;13.00;;
65358;SDS011;52491;45.900;6.346;2024-03-23T10:34:34;32.05;;;13.10;;
65358;SDS011;52491;45.900;6.346;2024-03-23T10:37:01;32.67;;;12.18;;
65358;SDS011;52491;45.900;6.346;2024-03-23T10:39:36;31.23;;;10.95;;
65358;SDS011;52491;45.900;6.346;2024-03-23T10:42:03;24.25;;;10.60;;
65358;SDS011;52491;45.900;6.346;2024-03-23T10:44:33;25.48;;;11.82;;
65358;SDS011;52491;45.900;6.346;2024-03-23T10:47:00;23.27;;;10.32;;
65358;SDS011;52491;45.900;6.346;2024-03-23T10:49:27;22.17;;;7.32;;
65358;SDS011;52491;45.900;6.346;2024-03-23T10:51:55;19.05;;;9.20;;
65358;SDS011;52491;45.900;6.346;2024-03-23T10:54:24;24.63;;;9.13;;
65358;SDS011;52491;45.900;6.346;2024-03-23T10:56:52;20.90;;;9.95;;
65358;SDS011;52491;45.900;6.346;2024-03-23T10:59:20;20.90;;;8.82;;
65358;SDS011;52491;45.900;6.346;2024-03-23T11:04:24;18.90;;;8.05;;
65358;SDS011;52491;45.900;6.346;2024-03-23T11:06:55;17.10;;;8.07;;
65358;SDS011;52491;45.900;6.346;2024-03-23T11:11:48;15.98;;;7.20;;
65358;SDS011;52491;45.900;6.346;2024-03-23T11:14:21;21.10;;;7.85;;
65358;SDS011;52491;45.900;6.346;2024-03-23T11:19:34;20.33;;;6.25;;
65358;SDS011;52491;45.900;6.346;2024-03-23T11:22:01;9.70;;;4.50;;
65358;SDS011;52491;45.900;6.346;2024-03-23T11:24:28;11.35;;;5.22;;
65358;SDS011;52491;45.900;6.346;2024-03-23T11:26:54;13.23;;;5.85;;
65358;SDS011;52491;45.900;6.346;2024-03-23T11:29:19;12.85;;;6.05;;
65358;SDS011;52491;45.900;6.346;2024-03-23T11:31:52;12.55;;;5.63;;
65358;SDS011;52491;45.900;6.346;2024-03-23T11:34:19;9.50;;;4.72;;
65358;SDS011;52491;45.900;6.346;2024-03-23T11:36:45;10.07;;;4.38;;
65358;SDS011;52491;45.900;6.346;2024-03-23T11:39:12;10.35;;;3.70;;
65358;SDS011;52491;45.900;6.346;2024-03-23T11:46:35;17.75;;;5.55;;
65358;SDS011;52491;45.900;6.346;2024-03-23T11:49:01;8.90;;;3.58;;
65358;SDS011;52491;45.900;6.346;2024-03-23T11:51:26;17.33;;;4.32;;
65358;SDS011;52491;45.900;6.346;2024-03-23T11:53:54;12.90;;;4.82;;
65358;SDS011;52491;45.900;6.346;2024-03-23T11:56:32;9.80;;;3.50;;
65358;SDS011;52491;45.900;6.346;2024-03-23T11:58:58;8.52;;;3.63;;
65358;SDS011;52491;45.900;6.346;2024-03-23T12:01:24;6.57;;;3.15;;
65358;SDS011;52491;45.900;6.346;2024-03-23T12:03:50;8.70;;;3.10;;
65358;SDS011;52491;45.900;6.346;2024-03-23T12:06:19;10.98;;;3.50;;
65358;SDS011;52491;45.900;6.346;2024-03-23T12:08:45;11.48;;;3.75;;
65358;SDS011;52491;45.900;6.346;2024-03-23T12:11:12;7.70;;;2.75;;
65358;SDS011;52491;45.900;6.346;2024-03-23T12:13:40;12.75;;;3.45;;
65358;SDS011;52491;45.900;6.346;2024-03-23T12:16:09;5.70;;;2.63;;
65358;SDS011;52491;45.900;6.346;2024-03-23T12:18:36;9.18;;;3.40;;
65358;SDS011;52491;45.900;6.346;2024-03-23T12:21:03;8.27;;;3.30;;
65358;SDS011;52491;45.900;6.346;2024-03-23T12:23:29;7.72;;;2.67;;
65358;SDS011;52491;45.900;6.346;2024-03-23T12:25:55;8.75;;;3.10;;
65358;SDS011;52491;45.900;6.346;2024-03-23T12:28:21;3.90;;;2.05;;
65358;SDS011;52491;45.900;6.346;2024-03-23T12:30:47;8.55;;;2.92;;
65358;SDS011;52491;45.900;6.346;2024-03-23T12:33:12;12.02;;;3.72;;
65358;SDS011;52491;45.900;6.346;2024-03-23T12:35:38;6.72;;;3.35;;
65358;SDS011;52491;45.900;6.346;2024-03-23T12:38:04;9.93;;;2.30;;
65358;SDS011;52491;45.900;6.346;2024-03-23T12:40:29;9.43;;;2.60;;
65358;SDS011;52491;45.900;6.346;2024-03-23T12:42:55;6.13;;;2.30;;
65358;SDS011;52491;45.900;6.346;2024-03-23T12:45:21;9.20;;;2.42;;
65358;SDS011;52491;45.900;6.346;2024-03-23T12:47:47;5.70;;;2.47;;
65358;SDS011;52491;45.900;6.346;2024-03-23T12:50:13;8.00;;;2.20;;
65358;SDS011;52491;45.900;6.346;2024-03-23T12:52:39;6.53;;;2.28;;
65358;SDS011;52491;45.900;6.346;2024-03-23T12:55:05;4.60;;;2.60;;
65358;SDS011;52491;45.900;6.346;2024-03-23T12:57:31;6.30;;;2.60;;
65358;SDS011;52491;45.900;6.346;2024-03-23T12:59:57;6.07;;;2.65;;
65358;SDS011;52491;45.900;6.346;2024-03-23T13:02:23;5.00;;;1.42;;
65358;SDS011;52491;45.900;6.346;2024-03-23T13:04:49;3.88;;;1.35;;
65358;SDS011;52491;45.900;6.346;2024-03-23T13:07:16;6.10;;;2.28;;
65358;SDS011;52491;45.900;6.346;2024-03-23T13:09:43;4.57;;;1.77;;
65358;SDS011;52491;45.900;6.346;2024-03-23T13:12:09;5.38;;;1.15;;
65358;SDS011;52491;45.900;6.346;2024-03-23T13:14:35;2.47;;;1.52;;
65358;SDS011;52491;45.900;6.346;2024-03-23T13:17:01;3.58;;;1.58;;
65358;SDS011;52491;45.900;6.346;2024-03-23T13:19:28;8.05;;;2.00;;
65358;SDS011;52491;45.900;6.346;2024-03-23T13:21:56;3.42;;;1.65;;
65358;SDS011;52491;45.900;6.346;2024-03-23T13:24:24;6.97;;;1.98;;
65358;SDS011;52491;45.900;6.346;2024-03-23T13:26:50;6.72;;;2.05;;
65358;SDS011;52491;45.900;6.346;2024-03-23T13:29:17;2.50;;;1.05;;
65358;SDS011;52491;45.900;6.346;2024-03-23T13:31:44;9.57;;;2.78;;
65358;SDS011;52491;45.900;6.346;2024-03-23T13:34:11;3.60;;;1.10;;
65358;SDS011;52491;45.900;6.346;2024-03-23T13:36:38;4.93;;;1.50;;
65358;SDS011;52491;45.900;6.346;2024-03-23T13:39:03;2.33;;;1.25;;
65358;SDS011;52491;45.900;6.346;2024-03-23T13:41:36;7.03;;;2.00;;
65358;SDS011;52491;45.900;6.346;2024-03-23T13:46:37;7.03;;;1.70;;
65358;SDS011;52491;45.900;6.346;2024-03-23T13:49:04;5.75;;;1.27;;
65358;SDS011;52491;45.900;6.346;2024-03-23T13:51:30;7.32;;;1.40;;
65358;SDS011;52491;45.900;6.346;2024-03-23T13:53:56;8.27;;;1.70;;
65358;SDS011;52491;45.900;6.346;2024-03-23T13:56:22;5.55;;;1.40;;
65358;SDS011;52491;45.900;6.346;2024-03-23T13:58:48;6.88;;;1.08;;
65358;SDS011;52491;45.900;6.346;2024-03-23T14:01:14;4.97;;;1.42;;
65358;SDS011;52491;45.900;6.346;2024-03-23T14:03:41;15.02;;;2.05;;
65358;SDS011;52491;45.900;6.346;2024-03-23T14:06:08;4.50;;;1.23;;
65358;SDS011;52491;45.900;6.346;2024-03-23T14:08:36;4.78;;;1.63;;
65358;SDS011;52491;45.900;6.346;2024-03-23T14:11:05;5.68;;;1.42;;
65358;SDS011;52491;45.900;6.346;2024-03-23T14:13:31;5.82;;;1.45;;
65358;SDS011;52491;45.900;6.346;2024-03-23T14:15:57;5.20;;;0.95;;
65358;SDS011;52491;45.900;6.346;2024-03-23T14:18:24;4.70;;;1.40;;
65358;SDS011;52491;45.900;6.346;2024-03-23T14:20:51;7.28;;;1.52;;
65358;SDS011;52491;45.900;6.346;2024-03-23T14:23:18;8.15;;;1.33;;
65358;SDS011;52491;45.900;6.346;2024-03-23T14:25:44;4.95;;;1.73;;
65358;SDS011;52491;45.900;6.346;2024-03-23T14:28:10;5.55;;;1.15;;
65358;SDS011;52491;45.900;6.346;2024-03-23T14:30:37;6.18;;;1.00;;
65358;SDS011;52491;45.900;6.346;2024-03-23T14:33:03;4.72;;;1.10;;
65358;SDS011;52491;45.900;6.346;2024-03-23T14:35:28;5.57;;;1.50;;
65358;SDS011;52491;45.900;6.346;2024-03-23T14:37:54;3.67;;;1.23;;
65358;SDS011;52491;45.900;6.346;2024-03-23T14:40:20;4.43;;;1.02;;
65358;SDS011;52491;45.900;6.346;2024-03-23T14:42:45;2.70;;;1.00;;
65358;SDS011;52491;45.900;6.346;2024-03-23T14:45:11;2.65;;;1.08;;
65358;SDS011;52491;45.900;6.346;2024-03-23T14:47:37;2.20;;;0.88;;
65358;SDS011;52491;45.900;6.346;2024-03-23T14:50:03;3.38;;;0.65;;
65358;SDS011;52491;45.900;6.346;2024-03-23T14:52:29;1.98;;;0.70;;
65358;SDS011;52491;45.900;6.346;2024-03-23T14:54:55;2.22;;;0.95;;
65358;SDS011;52491;45.900;6.346;2024-03-23T14:57:21;1.70;;;0.95;;
65358;SDS011;52491;45.900;6.346;2024-03-23T14:59:47;1.90;;;0.93;;
65358;SDS011;52491;45.900;6.346;2024-03-23T15:02:13;1.98;;;0.77;;
65358;SDS011;52491;45.900;6.346;2024-03-23T15:04:40;3.47;;;1.00;;
65358;SDS011;52491;45.900;6.346;2024-03-23T15:07:07;3.78;;;0.98;;
65358;SDS011;52491;45.900;6.346;2024-03-23T15:09:33;3.45;;;1.10;;
65358;SDS011;52491;45.900;6.346;2024-03-23T15:11:59;2.97;;;0.90;;
65358;SDS011;52491;45.900;6.346;2024-03-23T15:14:24;2.35;;;1.08;;
65358;SDS011;52491;45.900;6.346;2024-03-23T15:16:50;2.13;;;0.73;;
65358;SDS011;52491;45.900;6.346;2024-03-23T15:19:18;3.50;;;1.10;;
65358;SDS011;52491;45.900;6.346;2024-03-23T15:21:43;3.42;;;0.95;;
65358;SDS011;52491;45.900;6.346;2024-03-23T15:24:09;5.15;;;1.42;;
65358;SDS011;52491;45.900;6.346;2024-03-23T15:26:36;2.70;;;1.17;;
65358;SDS011;52491;45.900;6.346;2024-03-23T15:29:02;2.95;;;0.50;;
65358;SDS011;52491;45.900;6.346;2024-03-23T15:31:38;2.88;;;0.98;;
65358;SDS011;52491;45.900;6.346;2024-03-23T15:34:04;2.03;;;1.00;;
65358;SDS011;52491;45.900;6.346;2024-03-23T15:36:30;1.70;;;0.73;;
65358;SDS011;52491;45.900;6.346;2024-03-23T15:38:56;2.33;;;0.70;;
65358;SDS011;52491;45.900;6.346;2024-03-23T15:41:22;3.15;;;0.73;;
65358;SDS011;52491;45.900;6.346;2024-03-23T15:43:49;2.60;;;0.80;;
65358;SDS011;52491;45.900;6.346;2024-03-23T15:46:15;2.53;;;0.75;;
65358;SDS011;52491;45.900;6.346;2024-03-23T15:48:41;2.45;;;0.77;;
65358;SDS011;52491;45.900;6.346;2024-03-23T15:51:12;2.00;;;0.55;;
65358;SDS011;52491;45.900;6.346;2024-03-23T15:53:40;0.80;;;0.77;;
65358;SDS011;52491;45.900;6.346;2024-03-23T15:56:05;4.90;;;1.08;;